sensor_id;sensor_type;location;lat;lon;timestamp;pressure;altitude;pressure_sealevel;temperature;humidity
56241;BME280;42155;53.096;23.226;2022-08-14T00:01:30;99872.22;;;22.39;59.58
56241;BME280;42155;53.096;23.226;2022-08-14T00:03:30;99871.78;;;22.35;59.02
56241;BME280;42155;53.096;23.226;2022-08-14T00:05:31;99888.84;;;22.35;59.82
56241;BME280;42155;53.096;23.226;2022-08-14T00:07:31;99874.72;;;22.33;60.32
56241;BME280;42155;53.096;23.226;2022-08-14T00:09:33;99869.47;;;22.25;60.23
56241;BME280;42155;53.096;23.226;2022-08-14T00:11:33;99871.97;;;22.27;60.46
56241;BME280;42155;53.096;23.226;2022-08-14T00:13:34;99877.97;;;22.22;59.95
56241;BME280;42155;53.096;23.226;2022-08-14T00:15:37;99871.72;;;22.15;60.41
56241;BME280;42155;53.096;23.226;2022-08-14T00:17:38;99865.81;;;22.05;60.14
56241;BME280;42155;53.096;23.226;2022-08-14T00:19:39;99860.81;;;22.02;60.49
56241;BME280;42155;53.096;23.226;2022-08-14T00:21:39;99868.69;;;21.97;61.27
56241;BME280;42155;53.096;23.226;2022-08-14T00:23:40;99854.28;;;21.90;61.49
56241;BME280;42155;53.096;23.226;2022-08-14T00:25:42;99852.38;;;21.83;61.85
56241;BME280;42155;53.096;23.226;2022-08-14T00:27:42;99834.03;;;21.72;62.14
56241;BME280;42155;53.096;23.226;2022-08-14T00:29:42;99825.28;;;21.64;62.17
56241;BME280;42155;53.096;23.226;2022-08-14T00:31:43;99828.56;;;21.59;62.09
56241;BME280;42155;53.096;23.226;2022-08-14T00:33:43;99850.66;;;21.69;62.24
56241;BME280;42155;53.096;23.226;2022-08-14T00:35:44;99848.13;;;21.68;62.19
56241;BME280;42155;53.096;23.226;2022-08-14T00:37:45;99855.59;;;21.66;62.17
56241;BME280;42155;53.096;23.226;2022-08-14T00:39:45;99851.44;;;21.63;62.24
56241;BME280;42155;53.096;23.226;2022-08-14T00:41:47;99839.66;;;21.43;62.22
56241;BME280;42155;53.096;23.226;2022-08-14T00:43:47;99844.25;;;21.49;62.59
56241;BME280;42155;53.096;23.226;2022-08-14T00:45:47;99853.41;;;21.48;62.40
56241;BME280;42155;53.096;23.226;2022-08-14T00:47:48;99817.56;;;21.32;62.68
56241;BME280;42155;53.096;23.226;2022-08-14T00:49:50;99845.31;;;21.48;63.17
56241;BME280;42155;53.096;23.226;2022-08-14T00:51:51;99854.44;;;21.47;62.80
56241;BME280;42155;53.096;23.226;2022-08-14T00:53:51;99844.22;;;21.42;63.00
56241;BME280;42155;53.096;23.226;2022-08-14T00:55:52;99843.19;;;21.43;62.66
56241;BME280;42155;53.096;23.226;2022-08-14T00:57:53;99840.69;;;21.42;62.73
56241;BME280;42155;53.096;23.226;2022-08-14T00:59:53;99842.16;;;21.44;62.63
56241;BME280;42155;53.096;23.226;2022-08-14T01:01:59;99852.56;;;21.47;63.50
56241;BME280;42155;53.096;23.226;2022-08-14T01:04:00;99832.97;;;21.39;63.24
56241;BME280;42155;53.096;23.226;2022-08-14T01:06:01;99847.13;;;21.41;63.31
56241;BME280;42155;53.096;23.226;2022-08-14T01:08:01;99849.59;;;21.35;63.70
56241;BME280;42155;53.096;23.226;2022-08-14T01:10:03;99836.19;;;21.27;63.68
56241;BME280;42155;53.096;23.226;2022-08-14T01:12:04;99843.22;;;21.22;63.97
56241;BME280;42155;53.096;23.226;2022-08-14T01:14:04;99845.25;;;21.20;64.04
56241;BME280;42155;53.096;23.226;2022-08-14T01:16:08;99847.72;;;21.15;64.22
56241;BME280;42155;53.096;23.226;2022-08-14T01:18:09;99834.75;;;21.03;63.68
56241;BME280;42155;53.096;23.226;2022-08-14T01:20:11;99848.09;;;21.11;64.12
56241;BME280;42155;53.096;23.226;2022-08-14T01:22:11;99851.81;;;21.10;64.06
56241;BME280;42155;53.096;23.226;2022-08-14T01:24:11;99853.44;;;21.05;64.36
56241;BME280;42155;53.096;23.226;2022-08-14T01:26:13;99847.22;;;21.04;64.26
56241;BME280;42155;53.096;23.226;2022-08-14T01:28:14;99842.00;;;21.03;64.14
56241;BME280;42155;53.096;23.226;2022-08-14T01:30:15;99817.22;;;20.93;64.59
56241;BME280;42155;53.096;23.226;2022-08-14T01:32:19;99806.72;;;20.76;64.49
56241;BME280;42155;53.096;23.226;2022-08-14T01:34:20;99837.72;;;20.87;64.76
56241;BME280;42155;53.096;23.226;2022-08-14T01:36:21;99839.91;;;20.77;65.32
56241;BME280;42155;53.096;23.226;2022-08-14T01:38:22;99815.56;;;20.49;65.28
56241;BME280;42155;53.096;23.226;2022-08-14T01:40:24;99831.34;;;20.52;65.55
56241;BME280;42155;53.096;23.226;2022-08-14T01:42:24;99850.50;;;20.57;65.53
56241;BME280;42155;53.096;23.226;2022-08-14T01:44:27;99857.53;;;20.58;65.50
56241;BME280;42155;53.096;23.226;2022-08-14T01:46:34;99848.16;;;20.54;65.63
56241;BME280;42155;53.096;23.226;2022-08-14T01:48:35;99849.56;;;20.50;65.80
56241;BME280;42155;53.096;23.226;2022-08-14T01:50:36;99850.69;;;20.41;66.10
56241;BME280;42155;53.096;23.226;2022-08-14T01:52:37;99844.81;;;20.37;66.48
56241;BME280;42155;53.096;23.226;2022-08-14T01:54:38;99843.72;;;20.31;66.43
56241;BME280;42155;53.096;23.226;2022-08-14T01:56:38;99843.72;;;20.31;66.70
56241;BME280;42155;53.096;23.226;2022-08-14T01:58:42;99844.66;;;20.24;67.26
56241;BME280;42155;53.096;23.226;2022-08-14T02:00:42;99840.88;;;20.18;67.18
56241;BME280;42155;53.096;23.226;2022-08-14T02:02:43;99852.69;;;20.17;67.46
56241;BME280;42155;53.096;23.226;2022-08-14T02:04:43;99846.34;;;20.10;67.56
56241;BME280;42155;53.096;23.226;2022-08-14T02:06:44;99852.69;;;20.02;68.10
56241;BME280;42155;53.096;23.226;2022-08-14T02:08:44;99843.53;;;19.97;68.16
56241;BME280;42155;53.096;23.226;2022-08-14T02:10:45;99850.31;;;19.93;68.63
56241;BME280;42155;53.096;23.226;2022-08-14T02:12:45;99824.22;;;19.78;68.73
56241;BME280;42155;53.096;23.226;2022-08-14T02:14:45;99849.09;;;19.80;68.71
56241;BME280;42155;53.096;23.226;2022-08-14T02:16:48;99854.47;;;19.80;68.63
56241;BME280;42155;53.096;23.226;2022-08-14T02:18:50;99850.94;;;19.80;68.75
56241;BME280;42155;53.096;23.226;2022-08-14T02:20:51;99861.91;;;19.78;68.89
56241;BME280;42155;53.096;23.226;2022-08-14T02:22:51;99843.16;;;19.70;69.01
56241;BME280;42155;53.096;23.226;2022-08-14T02:24:52;99864.50;;;19.72;69.08
56241;BME280;42155;53.096;23.226;2022-08-14T02:26:52;99863.03;;;19.69;69.59
56241;BME280;42155;53.096;23.226;2022-08-14T02:28:56;99855.66;;;19.63;69.45
56241;BME280;42155;53.096;23.226;2022-08-14T02:31:00;99855.03;;;19.61;69.48
56241;BME280;42155;53.096;23.226;2022-08-14T02:33:00;99840.66;;;19.46;69.76
56241;BME280;42155;53.096;23.226;2022-08-14T02:35:00;99839.53;;;19.40;69.63
56241;BME280;42155;53.096;23.226;2022-08-14T02:37:11;99838.53;;;19.41;69.19
56241;BME280;42155;53.096;23.226;2022-08-14T02:39:13;99852.28;;;19.46;69.86
56241;BME280;42155;53.096;23.226;2022-08-14T02:41:14;99858.66;;;19.45;69.74
56241;BME280;42155;53.096;23.226;2022-08-14T02:43:14;99861.75;;;19.42;69.93
56241;BME280;42155;53.096;23.226;2022-08-14T02:45:15;99866.28;;;19.42;70.10
56241;BME280;42155;53.096;23.226;2022-08-14T02:47:16;99860.78;;;19.35;70.31
56241;BME280;42155;53.096;23.226;2022-08-14T02:49:16;99859.97;;;19.34;70.36
56241;BME280;42155;53.096;23.226;2022-08-14T02:51:16;99699.44;;;18.37;70.28
56241;BME280;42155;53.096;23.226;2022-08-14T02:53:17;99852.63;;;19.28;70.65
56241;BME280;42155;53.096;23.226;2022-08-14T02:55:17;99853.25;;;19.30;70.55
56241;BME280;42155;53.096;23.226;2022-08-14T02:57:18;99853.66;;;19.27;70.62
56241;BME280;42155;53.096;23.226;2022-08-14T02:59:20;99836.91;;;19.17;70.51
56241;BME280;42155;53.096;23.226;2022-08-14T03:01:23;99848.34;;;19.19;70.48
56241;BME280;42155;53.096;23.226;2022-08-14T03:03:24;99845.81;;;19.18;70.92
56241;BME280;42155;53.096;23.226;2022-08-14T03:05:25;99841.75;;;19.22;71.19
56241;BME280;42155;53.096;23.226;2022-08-14T03:07:25;99848.97;;;19.21;70.98
56241;BME280;42155;53.096;23.226;2022-08-14T03:09:26;99852.06;;;19.18;70.99
56241;BME280;42155;53.096;23.226;2022-08-14T03:11:26;99796.69;;;18.86;71.08
56241;BME280;42155;53.096;23.226;2022-08-14T03:13:26;99847.03;;;19.15;71.61
56241;BME280;42155;53.096;23.226;2022-08-14T03:15:27;99840.63;;;19.16;71.63
56241;BME280;42155;53.096;23.226;2022-08-14T03:17:27;99836.91;;;19.17;71.66
56241;BME280;42155;53.096;23.226;2022-08-14T03:19:27;99837.44;;;19.13;71.65
56241;BME280;42155;53.096;23.226;2022-08-14T03:21:28;99841.94;;;19.20;71.60
56241;BME280;42155;53.096;23.226;2022-08-14T03:25:39;99837.25;;;19.37;71.25
56241;BME280;42155;53.096;23.226;2022-08-14T03:27:39;99831.13;;;19.43;71.21
56241;BME280;42155;53.096;23.226;2022-08-14T03:29:40;99822.22;;;19.43;71.14
56241;BME280;42155;53.096;23.226;2022-08-14T03:31:40;99837.53;;;19.57;71.29
56241;BME280;42155;53.096;23.226;2022-08-14T03:33:42;99821.69;;;19.62;70.90
56241;BME280;42155;53.096;23.226;2022-08-14T03:35:42;99823.75;;;19.75;70.81
56241;BME280;42155;53.096;23.226;2022-08-14T03:37:42;99829.22;;;19.81;70.92
56241;BME280;42155;53.096;23.226;2022-08-14T03:39:43;99830.50;;;19.86;70.53
56241;BME280;42155;53.096;23.226;2022-08-14T03:41:43;99824.75;;;19.89;70.63
56241;BME280;42155;53.096;23.226;2022-08-14T03:43:48;99807.31;;;19.84;70.59
56241;BME280;42155;53.096;23.226;2022-08-14T03:45:49;99828.25;;;20.04;70.59
56241;BME280;42155;53.096;23.226;2022-08-14T03:47:49;99831.69;;;20.13;70.64
56241;BME280;42155;53.096;23.226;2022-08-14T03:49:49;99827.88;;;20.22;70.14
56241;BME280;42155;53.096;23.226;2022-08-14T03:51:50;99827.19;;;20.34;69.59
56241;BME280;42155;53.096;23.226;2022-08-14T03:53:50;99821.78;;;20.49;69.17
56241;BME280;42155;53.096;23.226;2022-08-14T03:55:51;99825.97;;;20.73;68.82
56241;BME280;42155;53.096;23.226;2022-08-14T03:57:51;99812.53;;;21.29;67.52
56241;BME280;42155;53.096;23.226;2022-08-14T03:59:51;99811.88;;;22.31;65.03
56241;BME280;42155;53.096;23.226;2022-08-14T04:01:52;99818.06;;;23.26;62.86
56241;BME280;42155;53.096;23.226;2022-08-14T04:03:54;99825.72;;;23.62;61.28
56241;BME280;42155;53.096;23.226;2022-08-14T04:05:55;99815.53;;;23.38;61.55
56241;BME280;42155;53.096;23.226;2022-08-14T04:07:55;99805.78;;;23.04;61.70
56241;BME280;42155;53.096;23.226;2022-08-14T04:09:56;99818.47;;;23.10;61.85
56241;BME280;42155;53.096;23.226;2022-08-14T04:11:56;99814.09;;;23.16;62.11
56241;BME280;42155;53.096;23.226;2022-08-14T04:13:56;99807.03;;;22.95;62.28
56241;BME280;42155;53.096;23.226;2022-08-14T04:15:57;99802.38;;;22.69;62.56
56241;BME280;42155;53.096;23.226;2022-08-14T04:18:02;99808.59;;;22.43;63.49
56241;BME280;42155;53.096;23.226;2022-08-14T04:20:04;99810.47;;;22.49;63.75
56241;BME280;42155;53.096;23.226;2022-08-14T04:22:04;99814.28;;;22.87;63.09
56241;BME280;42155;53.096;23.226;2022-08-14T04:24:05;99810.94;;;23.52;61.59
56241;BME280;42155;53.096;23.226;2022-08-14T04:26:08;99805.50;;;24.36;59.49
56241;BME280;42155;53.096;23.226;2022-08-14T04:28:11;99812.19;;;24.97;58.89
56241;BME280;42155;53.096;23.226;2022-08-14T04:30:11;99807.25;;;25.19;57.69
56241;BME280;42155;53.096;23.226;2022-08-14T04:32:12;99808.63;;;25.28;56.97
56241;BME280;42155;53.096;23.226;2022-08-14T04:34:12;99809.34;;;25.17;57.42
56241;BME280;42155;53.096;23.226;2022-08-14T04:36:13;99813.41;;;25.01;57.54
56241;BME280;42155;53.096;23.226;2022-08-14T04:38:13;99809.22;;;25.05;57.43
56241;BME280;42155;53.096;23.226;2022-08-14T04:40:14;99811.38;;;25.22;57.10
56241;BME280;42155;53.096;23.226;2022-08-14T04:42:14;99820.03;;;25.12;56.99
56241;BME280;42155;53.096;23.226;2022-08-14T04:44:14;99817.56;;;25.04;56.95
56241;BME280;42155;53.096;23.226;2022-08-14T04:46:17;99815.06;;;25.02;56.84
56241;BME280;42155;53.096;23.226;2022-08-14T04:48:18;99830.31;;;25.03;57.23
56241;BME280;42155;53.096;23.226;2022-08-14T04:50:19;99832.19;;;25.03;56.68
56241;BME280;42155;53.096;23.226;2022-08-14T04:52:19;99826.16;;;25.01;56.49
56241;BME280;42155;53.096;23.226;2022-08-14T04:54:20;99823.47;;;24.94;57.21
56241;BME280;42155;53.096;23.226;2022-08-14T04:56:24;99823.81;;;24.79;56.78
56241;BME280;42155;53.096;23.226;2022-08-14T04:58:27;99829.06;;;24.74;56.81
56241;BME280;42155;53.096;23.226;2022-08-14T05:00:27;99829.16;;;24.86;56.23
56241;BME280;42155;53.096;23.226;2022-08-14T05:02:28;99822.72;;;24.87;56.57
56241;BME280;42155;53.096;23.226;2022-08-14T05:04:28;99818.53;;;24.84;57.48
56241;BME280;42155;53.096;23.226;2022-08-14T05:06:28;99822.56;;;24.75;57.18
56241;BME280;42155;53.096;23.226;2022-08-14T05:08:30;99806.13;;;24.70;56.98
56241;BME280;42155;53.096;23.226;2022-08-14T05:10:31;99826.47;;;25.18;56.63
56241;BME280;42155;53.096;23.226;2022-08-14T05:12:31;99827.31;;;25.36;56.27
56241;BME280;42155;53.096;23.226;2022-08-14T05:14:31;99824.69;;;25.30;56.16
56241;BME280;42155;53.096;23.226;2022-08-14T05:16:32;99824.56;;;25.18;56.10
56241;BME280;42155;53.096;23.226;2022-08-14T05:18:36;99824.88;;;25.03;56.44
56241;BME280;42155;53.096;23.226;2022-08-14T05:20:38;99817.09;;;24.82;56.68
56241;BME280;42155;53.096;23.226;2022-08-14T05:22:39;99815.81;;;24.59;57.55
56241;BME280;42155;53.096;23.226;2022-08-14T05:24:39;99814.88;;;24.41;58.38
56241;BME280;42155;53.096;23.226;2022-08-14T05:26:39;99819.44;;;24.33;58.75
56241;BME280;42155;53.096;23.226;2022-08-14T05:28:41;99806.72;;;24.34;58.23
56241;BME280;42155;53.096;23.226;2022-08-14T05:30:42;99822.53;;;24.50;58.71
56241;BME280;42155;53.096;23.226;2022-08-14T05:32:42;99819.06;;;24.68;58.05
56241;BME280;42155;53.096;23.226;2022-08-14T05:34:42;99808.84;;;24.95;57.00
56241;BME280;42155;53.096;23.226;2022-08-14T05:36:43;99810.22;;;25.11;56.66
56241;BME280;42155;53.096;23.226;2022-08-14T05:38:45;99803.94;;;25.35;56.05
56241;BME280;42155;53.096;23.226;2022-08-14T05:40:46;99809.13;;;26.17;54.95
56241;BME280;42155;53.096;23.226;2022-08-14T05:42:47;99804.16;;;27.39;52.26
56241;BME280;42155;53.096;23.226;2022-08-14T05:44:47;99793.44;;;28.82;49.18
56241;BME280;42155;53.096;23.226;2022-08-14T05:46:48;99787.69;;;30.12;46.82
56241;BME280;42155;53.096;23.226;2022-08-14T05:48:53;99776.59;;;30.73;45.08
56241;BME280;42155;53.096;23.226;2022-08-14T05:50:54;99779.50;;;31.73;43.09
56241;BME280;42155;53.096;23.226;2022-08-14T05:52:54;99778.38;;;32.36;42.21
56241;BME280;42155;53.096;23.226;2022-08-14T05:54:55;99765.81;;;32.56;41.40
56241;BME280;42155;53.096;23.226;2022-08-14T05:56:55;99779.00;;;32.64;41.66
56241;BME280;42155;53.096;23.226;2022-08-14T05:58:55;99774.09;;;33.02;41.44
56241;BME280;42155;53.096;23.226;2022-08-14T06:00:56;99775.69;;;32.52;42.34
56241;BME280;42155;53.096;23.226;2022-08-14T06:02:58;99776.97;;;31.61;43.61
56241;BME280;42155;53.096;23.226;2022-08-14T06:04:59;99773.88;;;30.78;44.89
56241;BME280;42155;53.096;23.226;2022-08-14T06:06:59;99771.72;;;30.26;46.00
56241;BME280;42155;53.096;23.226;2022-08-14T06:08:59;99777.56;;;29.90;47.15
56241;BME280;42155;53.096;23.226;2022-08-14T06:11:02;99776.09;;;29.61;47.49
56241;BME280;42155;53.096;23.226;2022-08-14T06:13:03;99776.88;;;28.72;48.80
56241;BME280;42155;53.096;23.226;2022-08-14T06:15:06;99778.94;;;28.08;50.94
56241;BME280;42155;53.096;23.226;2022-08-14T06:17:06;99781.03;;;27.54;51.86
56241;BME280;42155;53.096;23.226;2022-08-14T06:19:06;99781.53;;;27.15;52.78
56241;BME280;42155;53.096;23.226;2022-08-14T06:21:07;99793.41;;;26.79;54.08
56241;BME280;42155;53.096;23.226;2022-08-14T06:23:07;99791.88;;;26.83;55.15
56241;BME280;42155;53.096;23.226;2022-08-14T06:25:09;99789.63;;;27.04;54.82
56241;BME280;42155;53.096;23.226;2022-08-14T06:27:10;99793.81;;;27.53;53.55
56241;BME280;42155;53.096;23.226;2022-08-14T06:29:10;99795.66;;;28.00;52.45
56241;BME280;42155;53.096;23.226;2022-08-14T06:31:11;99789.75;;;28.31;51.51
56241;BME280;42155;53.096;23.226;2022-08-14T06:33:12;99792.66;;;28.53;51.03
56241;BME280;42155;53.096;23.226;2022-08-14T06:35:15;99788.00;;;28.54;50.80
56241;BME280;42155;53.096;23.226;2022-08-14T06:37:16;99788.66;;;28.61;51.13
56241;BME280;42155;53.096;23.226;2022-08-14T06:39:16;99791.91;;;28.58;50.63
56241;BME280;42155;53.096;23.226;2022-08-14T06:41:16;99792.84;;;28.23;51.05
56241;BME280;42155;53.096;23.226;2022-08-14T06:43:17;99792.75;;;27.66;52.43
56241;BME280;42155;53.096;23.226;2022-08-14T06:45:18;99795.88;;;27.23;53.82
56241;BME280;42155;53.096;23.226;2022-08-14T06:47:19;99783.38;;;26.91;55.27
56241;BME280;42155;53.096;23.226;2022-08-14T06:49:19;99792.94;;;26.82;54.80
56241;BME280;42155;53.096;23.226;2022-08-14T06:51:20;99790.47;;;26.81;55.24
56241;BME280;42155;53.096;23.226;2022-08-14T06:53:21;99792.19;;;26.75;55.24
56241;BME280;42155;53.096;23.226;2022-08-14T06:55:21;99781.88;;;26.54;55.68
56241;BME280;42155;53.096;23.226;2022-08-14T06:57:22;99788.75;;;26.38;56.43
56241;BME280;42155;53.096;23.226;2022-08-14T06:59:23;99787.66;;;26.27;56.42
56241;BME280;42155;53.096;23.226;2022-08-14T07:01:23;99802.25;;;26.14;56.96
56241;BME280;42155;53.096;23.226;2022-08-14T07:03:23;99792.06;;;25.92;57.93
56241;BME280;42155;53.096;23.226;2022-08-14T07:05:24;99793.66;;;25.81;57.99
56241;BME280;42155;53.096;23.226;2022-08-14T07:07:24;99798.97;;;25.69;58.03
56241;BME280;42155;53.096;23.226;2022-08-14T07:09:26;99786.59;;;25.55;58.73
56241;BME280;42155;53.096;23.226;2022-08-14T07:11:27;99803.38;;;25.52;58.83
56241;BME280;42155;53.096;23.226;2022-08-14T07:13:27;99807.13;;;25.51;59.16
56241;BME280;42155;53.096;23.226;2022-08-14T07:15:28;99798.38;;;25.49;59.69
56241;BME280;42155;53.096;23.226;2022-08-14T07:17:28;99804.09;;;25.40;59.75
56241;BME280;42155;53.096;23.226;2022-08-14T07:19:28;99809.22;;;25.30;60.48
56241;BME280;42155;53.096;23.226;2022-08-14T07:21:29;99804.84;;;25.29;60.08
56241;BME280;42155;53.096;23.226;2022-08-14T07:23:29;99803.22;;;25.22;60.18
56241;BME280;42155;53.096;23.226;2022-08-14T07:25:30;99809.06;;;25.25;60.11
56241;BME280;42155;53.096;23.226;2022-08-14T07:27:30;99799.13;;;25.12;60.34
56241;BME280;42155;53.096;23.226;2022-08-14T07:29:30;99785.16;;;25.09;60.65
56241;BME280;42155;53.096;23.226;2022-08-14T07:31:31;99803.34;;;25.08;61.10
56241;BME280;42155;53.096;23.226;2022-08-14T07:33:41;99791.72;;;24.95;61.02
56241;BME280;42155;53.096;23.226;2022-08-14T07:35:42;99797.16;;;24.95;61.87
56241;BME280;42155;53.096;23.226;2022-08-14T07:37:46;99800.94;;;24.94;61.44
56241;BME280;42155;53.096;23.226;2022-08-14T07:39:46;99795.06;;;24.97;61.06
56241;BME280;42155;53.096;23.226;2022-08-14T07:41:47;99797.72;;;25.03;61.10
56241;BME280;42155;53.096;23.226;2022-08-14T07:43:47;99794.09;;;25.16;61.08
56241;BME280;42155;53.096;23.226;2022-08-14T07:45:47;99800.56;;;25.40;60.92
56241;BME280;42155;53.096;23.226;2022-08-14T07:47:48;99770.38;;;25.48;60.39
56241;BME280;42155;53.096;23.226;2022-08-14T07:50:00;99785.88;;;25.66;59.92
56241;BME280;42155;53.096;23.226;2022-08-14T07:52:01;99788.47;;;25.79;59.79
56241;BME280;42155;53.096;23.226;2022-08-14T07:54:01;99800.16;;;26.17;60.81
56241;BME280;42155;53.096;23.226;2022-08-14T07:56:02;99789.72;;;26.44;59.26
56241;BME280;42155;53.096;23.226;2022-08-14T07:58:02;99793.28;;;26.74;58.45
56241;BME280;42155;53.096;23.226;2022-08-14T08:00:11;99796.41;;;27.01;57.11
56241;BME280;42155;53.096;23.226;2022-08-14T08:02:14;99783.88;;;27.12;56.85
56241;BME280;42155;53.096;23.226;2022-08-14T08:04:15;99779.75;;;27.21;57.24
56241;BME280;42155;53.096;23.226;2022-08-14T08:06:15;99788.72;;;27.57;56.62
56241;BME280;42155;53.096;23.226;2022-08-14T08:08:16;99785.25;;;27.97;56.70
56241;BME280;42155;53.096;23.226;2022-08-14T08:10:23;99783.13;;;28.39;55.92
56241;BME280;42155;53.096;23.226;2022-08-14T08:12:24;99782.41;;;28.77;54.93
56241;BME280;42155;53.096;23.226;2022-08-14T08:14:25;99778.47;;;29.02;53.94
56241;BME280;42155;53.096;23.226;2022-08-14T08:16:27;99773.56;;;29.21;52.74
56241;BME280;42155;53.096;23.226;2022-08-14T08:18:28;99779.84;;;29.38;53.16
56241;BME280;42155;53.096;23.226;2022-08-14T08:20:28;99780.91;;;29.54;52.50
56241;BME280;42155;53.096;23.226;2022-08-14T08:22:29;99780.00;;;29.48;51.53
56241;BME280;42155;53.096;23.226;2022-08-14T08:24:29;99777.78;;;29.45;51.89
56241;BME280;42155;53.096;23.226;2022-08-14T08:26:30;99776.75;;;29.51;51.30
56241;BME280;42155;53.096;23.226;2022-08-14T08:28:30;99776.09;;;29.61;51.41
56241;BME280;42155;53.096;23.226;2022-08-14T08:30:31;99783.75;;;29.59;51.43
56241;BME280;42155;53.096;23.226;2022-08-14T08:32:42;99780.53;;;29.28;51.54
56241;BME280;42155;53.096;23.226;2022-08-14T08:34:46;99780.16;;;29.03;52.12
56241;BME280;42155;53.096;23.226;2022-08-14T08:36:46;99771.44;;;28.89;52.55
56241;BME280;42155;53.096;23.226;2022-08-14T08:38:47;99777.91;;;29.00;52.71
56241;BME280;42155;53.096;23.226;2022-08-14T08:40:50;99769.38;;;28.96;52.74
56241;BME280;42155;53.096;23.226;2022-08-14T08:42:51;99777.94;;;28.88;53.75
56241;BME280;42155;53.096;23.226;2022-08-14T08:44:54;99771.00;;;28.80;53.53
56241;BME280;42155;53.096;23.226;2022-08-14T08:46:56;99771.81;;;28.64;53.92
56241;BME280;42155;53.096;23.226;2022-08-14T08:48:57;99774.63;;;28.69;54.46
56241;BME280;42155;53.096;23.226;2022-08-14T08:51:00;99781.72;;;28.70;54.25
56241;BME280;42155;53.096;23.226;2022-08-14T08:53:03;99787.84;;;28.44;54.47
56241;BME280;42155;53.096;23.226;2022-08-14T08:55:04;99774.56;;;28.35;55.28
56241;BME280;42155;53.096;23.226;2022-08-14T08:57:11;99766.97;;;28.37;54.53
56241;BME280;42155;53.096;23.226;2022-08-14T08:59:30;99782.28;;;28.38;55.45
56241;BME280;42155;53.096;23.226;2022-08-14T09:01:31;99782.03;;;28.40;54.75
56241;BME280;42155;53.096;23.226;2022-08-14T09:03:31;99767.66;;;28.45;54.88
56241;BME280;42155;53.096;23.226;2022-08-14T09:05:34;99773.97;;;28.62;54.92
56241;BME280;42155;53.096;23.226;2022-08-14T09:07:34;99769.94;;;28.81;54.19
56241;BME280;42155;53.096;23.226;2022-08-14T09:09:35;99787.84;;;29.06;54.42
56241;BME280;42155;53.096;23.226;2022-08-14T09:11:36;99774.50;;;29.09;53.45
56241;BME280;42155;53.096;23.226;2022-08-14T09:13:36;99782.28;;;29.01;53.63
56241;BME280;42155;53.096;23.226;2022-08-14T09:15:47;99786.75;;;29.07;53.31
56241;BME280;42155;53.096;23.226;2022-08-14T09:17:47;99774.47;;;28.92;53.32
56241;BME280;42155;53.096;23.226;2022-08-14T09:19:48;99768.28;;;28.80;53.99
56241;BME280;42155;53.096;23.226;2022-08-14T09:21:48;99769.59;;;28.95;54.39
56241;BME280;42155;53.096;23.226;2022-08-14T09:23:49;99774.16;;;29.06;53.87
56241;BME280;42155;53.096;23.226;2022-08-14T09:25:50;99763.75;;;29.03;53.82
56241;BME280;42155;53.096;23.226;2022-08-14T09:27:50;99756.13;;;29.05;54.17
56241;BME280;42155;53.096;23.226;2022-08-14T09:29:51;99757.38;;;29.14;53.75
56241;BME280;42155;53.096;23.226;2022-08-14T09:31:54;99752.63;;;29.26;53.36
56241;BME280;42155;53.096;23.226;2022-08-14T09:40:55;99752.97;;;29.13;54.37
56241;BME280;42155;53.096;23.226;2022-08-14T09:45:45;99744.03;;;29.01;55.06
56241;BME280;42155;53.096;23.226;2022-08-14T09:49:48;99734.63;;;29.30;54.48
56241;BME280;42155;53.096;23.226;2022-08-14T09:51:49;99737.88;;;29.27;54.44
56241;BME280;42155;53.096;23.226;2022-08-14T09:54:04;99734.25;;;29.22;54.78
56241;BME280;42155;53.096;23.226;2022-08-14T09:56:05;99723.47;;;29.15;55.14
56241;BME280;42155;53.096;23.226;2022-08-14T09:58:17;99729.09;;;29.25;55.19
56241;BME280;42155;53.096;23.226;2022-08-14T10:00:20;99736.88;;;29.33;54.16
56241;BME280;42155;53.096;23.226;2022-08-14T10:02:28;99726.53;;;29.35;54.15
56241;BME280;42155;53.096;23.226;2022-08-14T10:04:28;99715.72;;;29.46;54.52
56241;BME280;42155;53.096;23.226;2022-08-14T10:06:29;99723.81;;;29.57;53.80
56241;BME280;42155;53.096;23.226;2022-08-14T10:08:39;99725.28;;;29.65;53.66
56241;BME280;42155;53.096;23.226;2022-08-14T10:10:40;99726.22;;;29.54;53.10
56241;BME280;42155;53.096;23.226;2022-08-14T10:12:42;99709.09;;;29.41;53.39
56241;BME280;42155;53.096;23.226;2022-08-14T10:14:43;99707.16;;;29.20;53.42
56241;BME280;42155;53.096;23.226;2022-08-14T10:16:48;99712.53;;;29.32;53.47
56241;BME280;42155;53.096;23.226;2022-08-14T10:19:09;99707.00;;;29.49;53.72
56241;BME280;42155;53.096;23.226;2022-08-14T10:21:15;99708.31;;;29.63;52.91
56241;BME280;42155;53.096;23.226;2022-08-14T10:23:19;99711.41;;;29.72;52.67
56241;BME280;42155;53.096;23.226;2022-08-14T10:25:19;99711.34;;;29.88;52.75
56241;BME280;42155;53.096;23.226;2022-08-14T10:27:24;99692.56;;;29.97;52.21
56241;BME280;42155;53.096;23.226;2022-08-14T10:29:36;99704.44;;;30.08;51.24
56241;BME280;42155;53.096;23.226;2022-08-14T10:31:37;99700.00;;;30.02;51.42
56241;BME280;42155;53.096;23.226;2022-08-14T10:33:38;99706.25;;;30.19;51.08
56241;BME280;42155;53.096;23.226;2022-08-14T10:35:42;99718.84;;;30.20;50.08
56241;BME280;42155;53.096;23.226;2022-08-14T10:37:48;99706.63;;;30.06;50.70
56241;BME280;42155;53.096;23.226;2022-08-14T10:40:00;99708.22;;;30.02;50.87
56241;BME280;42155;53.096;23.226;2022-08-14T10:42:04;99704.97;;;30.05;50.62
56241;BME280;42155;53.096;23.226;2022-08-14T10:44:08;99700.44;;;29.93;51.40
56241;BME280;42155;53.096;23.226;2022-08-14T10:46:17;99702.16;;;30.00;51.12
56241;BME280;42155;53.096;23.226;2022-08-14T10:48:18;99697.53;;;30.00;50.73
56241;BME280;42155;53.096;23.226;2022-08-14T10:50:32;99693.38;;;29.98;51.22